Time;durP1;ratioP1;P1;durP2;ratioP2;P2;SDS_P1;SDS_P2;PMS_P1;PMS_P2;Temp;Humidity;BMP_temperature;BMP_pressure;BME280_temperature;BME280_humidity;BME280_pressure;Samples;Min_cycle;Max_cycle;Signal;HPM_P1;HPM_P2
2023/09/01 00:02:13;;;;;;;7.30;1.80;;;;;;;;;;5024026;28;20084;-65
2023/09/01 00:05:53;;;;;;;8.73;2.10;;;;;;;;;;5018866;28;20049;-66
2023/09/01 00:09:33;;;;;;;7.10;2.35;;;;;;;;;;5018806;28;20041;-66
2023/09/01 00:13:14;;;;;;;8.52;2.20;;;;;;;;;;5026998;28;20033;-67
2023/09/01 00:16:54;;;;;;;10.70;2.55;;;;;;;;;;5022726;28;20052;-66
2023/09/01 00:20:34;;;;;;;6.43;2.10;;;;;;;;;;5027261;28;20501;-66
2023/09/01 00:24:15;;;;;;;7.22;2.22;;;;;;;;;;5025375;28;20127;-66
2023/09/01 00:27:56;;;;;;;5.75;2.10;;;;;;;;;;5020748;28;20143;-66
2023/09/01 00:31:36;;;;;;;6.60;2.13;;;;;;;;;;5022835;28;20042;-65
2023/09/01 00:35:17;;;;;;;6.95;1.90;;;;;;;;;;5025303;28;20394;-69
2023/09/01 00:38:58;;;;;;;5.50;2.10;;;;;;;;;;5017010;28;20038;-65
2023/09/01 00:42:40;;;;;;;6.35;2.20;;;;;;;;;;5024750;28;20108;-67
2023/09/01 00:46:20;;;;;;;9.85;2.47;;;;;;;;;;5004801;28;20056;-67
2023/09/01 00:50:07;;;;;;;6.47;2.28;;;;;;;;;;5011061;28;20425;-66
2023/09/01 00:53:41;;;;;;;8.40;2.17;;;;;;;;;;5000395;28;20092;-65
2023/09/01 00:57:21;;;;;;;5.00;2.00;;;;;;;;;;5002295;28;20157;-66
2023/09/01 01:01:04;;;;;;;7.28;2.05;;;;;;;;;;5000869;28;20042;-66
2023/09/01 01:04:42;;;;;;;6.88;2.40;;;;;;;;;;5011190;28;20056;-67
2023/09/01 01:08:27;;;;;;;5.95;2.13;;;;;;;;;;5006221;28;20056;-66
2023/09/01 01:11:31;;;;;;;5.60;2.15;;;;;;;;;;5003110;28;20120;-67
2023/09/01 01:15:15;;;;;;;6.63;2.25;;;;;;;;;;5005942;28;20256;-67
2023/09/01 01:18:55;;;;;;;8.02;2.47;;;;;;;;;;5007679;28;20056;-67
2023/09/01 01:22:25;;;;;;;5.55;2.33;;;;;;;;;;5008554;28;20498;-67
2023/09/01 01:26:05;;;;;;;3.65;2.13;;;;;;;;;;5005436;28;20052;-66
2023/09/01 01:29:47;;;;;;;5.10;2.22;;;;;;;;;;5000535;28;20459;-65
2023/09/01 01:33:26;;;;;;;5.32;2.33;;;;;;;;;;5005462;28;21929;-67
2023/09/01 01:36:55;;;;;;;6.40;2.45;;;;;;;;;;5006601;28;20448;-67
2023/09/01 01:40:39;;;;;;;5.10;2.33;;;;;;;;;;5004619;28;20052;-66
2023/09/01 01:44:19;;;;;;;5.00;2.67;;;;;;;;;;5014442;28;20379;-66
2023/09/01 01:48:03;;;;;;;9.35;3.03;;;;;;;;;;5018321;28;20460;-66
2023/09/01 01:51:44;;;;;;;10.23;2.50;;;;;;;;;;5024194;28;20091;-66
2023/09/01 01:55:25;;;;;;;7.65;2.70;;;;;;;;;;5023455;28;20130;-65
2023/09/01 01:59:06;;;;;;;6.10;2.03;;;;;;;;;;5030910;28;20567;-67
2023/09/01 02:02:46;;;;;;;3.80;2.20;;;;;;;;;;5021897;28;20046;-66
2023/09/01 02:06:26;;;;;;;6.93;2.10;;;;;;;;;;5028629;28;20045;-64
2023/09/01 02:10:06;;;;;;;4.10;2.15;;;;;;;;;;5019691;28;20046;-65
2023/09/01 02:13:49;;;;;;;5.55;2.40;;;;;;;;;;5028980;28;20405;-65
2023/09/01 02:17:30;;;;;;;4.60;1.90;;;;;;;;;;5022591;28;20409;-66
2023/09/01 02:21:10;;;;;;;6.22;2.20;;;;;;;;;;5022034;28;20092;-66
2023/09/01 02:24:51;;;;;;;4.43;2.00;;;;;;;;;;5019033;28;21511;-66
2023/09/01 02:28:32;;;;;;;5.45;1.90;;;;;;;;;;5027177;28;20036;-65
2023/09/01 02:32:12;;;;;;;4.38;2.03;;;;;;;;;;5025460;28;20482;-65
2023/09/01 02:35:52;;;;;;;6.50;2.40;;;;;;;;;;5022023;28;20049;-64
2023/09/01 02:39:33;;;;;;;6.53;2.30;;;;;;;;;;5024812;28;20136;-64
2023/09/01 02:43:17;;;;;;;4.78;2.30;;;;;;;;;;5021495;28;20425;-65
2023/09/01 02:46:57;;;;;;;4.57;2.03;;;;;;;;;;5028494;28;20530;-64
2023/09/01 02:50:37;;;;;;;7.10;2.22;;;;;;;;;;5019624;28;20045;-64
2023/09/01 02:54:18;;;;;;;3.95;2.33;;;;;;;;;;5028050;28;20135;-64
2023/09/01 02:57:58;;;;;;;9.27;2.40;;;;;;;;;;5023633;28;20045;-64
2023/09/01 03:01:39;;;;;;;5.32;2.17;;;;;;;;;;5028615;28;20489;-65
2023/09/01 03:05:20;;;;;;;5.85;2.05;;;;;;;;;;5020181;28;20080;-65
2023/09/01 03:09:00;;;;;;;4.65;2.20;;;;;;;;;;5024788;28;20128;-65
2023/09/01 03:12:40;;;;;;;4.72;2.20;;;;;;;;;;5018722;28;20053;-64
2023/09/01 03:16:21;;;;;;;3.80;1.90;;;;;;;;;;5024482;28;20121;-64
2023/09/01 03:20:01;;;;;;;4.22;1.98;;;;;;;;;;5019065;28;20033;-64
2023/09/01 03:23:41;;;;;;;7.43;2.05;;;;;;;;;;5015660;28;20057;-64
2023/09/01 03:27:21;;;;;;;6.75;2.30;;;;;;;;;;5023936;28;20079;-63
2023/09/01 03:31:02;;;;;;;3.97;2.00;;;;;;;;;;5021347;28;20041;-64
2023/09/01 03:34:42;;;;;;;4.75;1.90;;;;;;;;;;5024174;28;20041;-64
2023/09/01 03:38:22;;;;;;;4.03;2.20;;;;;;;;;;5022423;28;20129;-65
2023/09/01 03:42:03;;;;;;;5.82;2.38;;;;;;;;;;5021785;28;20049;-65
2023/09/01 03:45:46;;;;;;;4.38;1.77;;;;;;;;;;5020769;28;20163;-65
2023/09/01 03:49:27;;;;;;;6.03;2.10;;;;;;;;;;5023310;28;20077;-65
2023/09/01 03:53:07;;;;;;;7.43;1.80;;;;;;;;;;5023694;28;20072;-65
2023/09/01 03:56:48;;;;;;;7.55;2.45;;;;;;;;;;5016476;28;20456;-63
2023/09/01 04:00:28;;;;;;;4.75;1.98;;;;;;;;;;5023179;28;20075;-64
2023/09/01 04:04:10;;;;;;;4.85;1.88;;;;;;;;;;5018912;28;20401;-65
2023/09/01 04:07:50;;;;;;;7.10;2.00;;;;;;;;;;5019659;28;20072;-66
2023/09/01 04:11:30;;;;;;;7.05;2.40;;;;;;;;;;5023558;28;20412;-64
2023/09/01 04:15:11;;;;;;;8.07;2.85;;;;;;;;;;5020451;28;20049;-67
2023/09/01 04:18:51;;;;;;;8.00;3.03;;;;;;;;;;5023725;28;20044;-65
2023/09/01 04:22:32;;;;;;;8.52;3.10;;;;;;;;;;5026235;28;20545;-65
2023/09/01 04:26:12;;;;;;;4.90;2.70;;;;;;;;;;5018470;28;20053;-64
2023/09/01 04:29:54;;;;;;;10.40;2.95;;;;;;;;;;5023391;28;20049;-65
2023/09/01 04:33:32;;;;;;;6.90;2.75;;;;;;;;;;5023571;28;20064;-65
2023/09/01 04:37:13;;;;;;;6.85;2.40;;;;;;;;;;5015843;28;20500;-65
2023/09/01 04:40:53;;;;;;;4.53;2.22;;;;;;;;;;5017398;28;20057;-65
2023/09/01 04:44:34;;;;;;;7.32;4.13;;;;;;;;;;5023597;28;20063;-64
2023/09/01 04:48:15;;;;;;;14.18;4.40;;;;;;;;;;5016623;28;20081;-65
2023/09/01 04:51:55;;;;;;;13.25;4.53;;;;;;;;;;5010329;28;20099;-65
2023/09/01 04:55:35;;;;;;;11.05;4.20;;;;;;;;;;5017697;28;20041;-66
2023/09/01 04:59:16;;;;;;;10.95;4.20;;;;;;;;;;5021025;28;20252;-64
2023/09/01 05:02:56;;;;;;;7.65;3.25;;;;;;;;;;5015429;28;20045;-65
2023/09/01 05:06:36;;;;;;;9.98;3.47;;;;;;;;;;5017629;28;20049;-64
2023/09/01 05:10:17;;;;;;;10.45;3.45;;;;;;;;;;5012612;28;20486;-62
2023/09/01 05:13:17;;;;;;;8.40;2.58;;;;;;;;;;5014858;28;20049;-65
2023/09/01 05:15:47;;;;;;;8.20;2.30;;;;;;;;;;5023217;28;20052;-64
2023/09/01 05:18:52;;;;;;;3.80;2.40;;;;;;;;;;5008193;28;20264;-65
2023/09/01 05:22:33;;;;;;;8.15;2.22;;;;;;;;;;5014313;28;20489;-63
2023/09/01 05:26:14;;;;;;;5.55;2.55;;;;;;;;;;5021739;28;20053;-63
2023/09/01 05:29:54;;;;;;;7.03;2.25;;;;;;;;;;5023167;28;20084;-64
2023/09/01 05:33:50;;;;;;;9.50;2.50;;;;;;;;;;5024864;28;20127;-64
2023/09/01 05:37:31;;;;;;;8.35;2.33;;;;;;;;;;5025877;28;20524;-66
2023/09/01 05:41:14;;;;;;;5.85;2.60;;;;;;;;;;5023377;28;20405;-65
2023/09/01 05:44:56;;;;;;;8.40;2.30;;;;;;;;;;5026617;28;20069;-65
2023/09/01 05:48:36;;;;;;;9.75;2.35;;;;;;;;;;5026197;28;20052;-66
2023/09/01 05:52:17;;;;;;;9.07;2.38;;;;;;;;;;5023439;28;20061;-64
2023/09/01 05:55:57;;;;;;;7.72;3.10;;;;;;;;;;5022138;28;20038;-64
2023/09/01 05:59:40;;;;;;;14.68;3.13;;;;;;;;;;5021315;28;20107;-65
2023/09/01 06:03:20;;;;;;;16.50;3.90;;;;;;;;;;5026367;28;20069;-65
2023/09/01 06:07:01;;;;;;;14.20;5.28;;;;;;;;;;5011089;28;20401;-67
2023/09/01 06:10:42;;;;;;;30.38;5.80;;;;;;;;;;5024054;28;20040;-66
2023/09/01 06:14:22;;;;;;;16.80;4.50;;;;;;;;;;5024900;28;20057;-67
2023/09/01 06:18:03;;;;;;;10.93;4.03;;;;;;;;;;5022052;28;20128;-64
2023/09/01 06:21:43;;;;;;;16.88;3.80;;;;;;;;;;5020130;28;20053;-66
2023/09/01 06:25:24;;;;;;;12.52;3.47;;;;;;;;;;5024976;28;20140;-64
2023/09/01 06:29:04;;;;;;;16.52;4.20;;;;;;;;;;5027514;28;20480;-66
2023/09/01 06:32:46;;;;;;;24.35;4.25;;;;;;;;;;5023645;28;20127;-66
2023/09/01 06:36:27;;;;;;;13.77;3.92;;;;;;;;;;5011856;28;20054;-66
2023/09/01 06:40:08;;;;;;;19.42;4.43;;;;;;;;;;5027037;28;20050;-67
2023/09/01 06:43:48;;;;;;;15.80;4.28;;;;;;;;;;5018144;28;20041;-64
2023/09/01 06:47:29;;;;;;;13.48;3.90;;;;;;;;;;5011255;28;20085;-66
2023/09/01 06:51:11;;;;;;;10.15;3.40;;;;;;;;;;5020210;28;20049;-66
2023/09/01 06:54:52;;;;;;;11.75;3.88;;;;;;;;;;5026507;28;20091;-66
2023/09/01 06:58:34;;;;;;;16.65;3.97;;;;;;;;;;5021375;28;20053;-66
2023/09/01 07:02:15;;;;;;;11.95;3.40;;;;;;;;;;5014985;28;20073;-66
2023/09/01 07:05:56;;;;;;;16.15;4.25;;;;;;;;;;5016849;28;20050;-68
2023/09/01 07:09:36;;;;;;;14.68;4.10;;;;;;;;;;5022393;28;20485;-68
2023/09/01 07:12:56;;;;;;;33.22;5.65;;;;;;;;;;5017264;28;20070;-68
2023/09/01 07:15:26;;;;;;;39.17;5.38;;;;;;;;;;5022341;28;20056;-68
2023/09/01 07:18:33;;;;;;;27.50;5.93;;;;;;;;;;5020099;28;20041;-68
2023/09/01 07:22:13;;;;;;;17.35;4.78;;;;;;;;;;5025429;28;20779;-65
2023/09/01 07:25:54;;;;;;;13.75;4.32;;;;;;;;;;5020084;28;20045;-67
2023/09/01 07:29:35;;;;;;;18.67;4.40;;;;;;;;;;5021686;28;20038;-67
2023/09/01 07:33:16;;;;;;;22.52;4.57;;;;;;;;;;5018251;28;20053;-66
2023/09/01 07:36:56;;;;;;;13.05;3.70;;;;;;;;;;5014636;28;20053;-68
2023/09/01 07:39:59;;;;;;;20.10;3.78;;;;;;;;;;5019347;28;20042;-68
2023/09/01 07:43:19;;;;;;;20.80;4.28;;;;;;;;;;5009960;28;20049;-67
2023/09/01 07:46:59;;;;;;;22.80;3.85;;;;;;;;;;5014349;28;20056;-67
2023/09/01 07:50:00;;;;;;;16.08;3.28;;;;;;;;;;5019334;28;20034;-68
2023/09/01 07:52:28;;;;;;;15.15;3.60;;;;;;;;;;4999968;28;20045;-68
2023/09/01 07:54:55;;;;;;;16.50;4.28;;;;;;;;;;5021205;28;20383;-69
2023/09/01 07:57:23;;;;;;;6.82;3.05;;;;;;;;;;5005668;28;20096;-67
2023/09/01 07:59:48;;;;;;;9.20;3.00;;;;;;;;;;5013708;28;20049;-66
2023/09/01 08:02:17;;;;;;;19.58;3.45;;;;;;;;;;5020015;28;20046;-65
2023/09/01 08:04:44;;;;;;;9.15;2.97;;;;;;;;;;5016679;28;20478;-66
2023/09/01 08:07:10;;;;;;;14.15;3.20;;;;;;;;;;5022617;28;20084;-66
2023/09/01 08:09:36;;;;;;;15.20;2.95;;;;;;;;;;5022098;28;20045;-66
2023/09/01 08:12:42;;;;;;;12.75;3.53;;;;;;;;;;5022843;28;20050;-67
2023/09/01 08:16:24;;;;;;;12.23;3.40;;;;;;;;;;5025373;28;20057;-66
2023/09/01 08:20:07;;;;;;;11.30;2.75;;;;;;;;;;5012845;28;20056;-67
2023/09/01 08:23:49;;;;;;;10.80;2.75;;;;;;;;;;5021531;28;20053;-69
2023/09/01 08:27:28;;;;;;;12.93;2.60;;;;;;;;;;5021423;28;20227;-68
2023/09/01 08:31:10;;;;;;;15.98;3.83;;;;;;;;;;5022698;28;20053;-69
2023/09/01 08:34:51;;;;;;;13.30;6.38;;;;;;;;;;5020777;28;20188;-67
2023/09/01 08:38:32;;;;;;;11.95;3.55;;;;;;;;;;5020800;28;20041;-68
2023/09/01 08:42:13;;;;;;;7.88;3.17;;;;;;;;;;5021523;28;20087;-72
2023/09/01 08:45:57;;;;;;;11.95;3.85;;;;;;;;;;5028044;28;20183;-69
2023/09/01 08:49:38;;;;;;;9.25;2.70;;;;;;;;;;5021965;28;20046;-70
2023/09/01 08:53:20;;;;;;;7.85;2.85;;;;;;;;;;5016573;28;20069;-69
2023/09/01 08:57:00;;;;;;;10.77;3.15;;;;;;;;;;5013128;28;20370;-67
2023/09/01 09:00:42;;;;;;;17.92;3.72;;;;;;;;;;5014225;28;20054;-67
2023/09/01 09:04:22;;;;;;;13.30;3.55;;;;;;;;;;5015587;28;20052;-69
2023/09/01 09:08:04;;;;;;;9.35;2.75;;;;;;;;;;5015190;28;20057;-68
2023/09/01 09:11:45;;;;;;;12.27;3.55;;;;;;;;;;5016950;28;20129;-69
2023/09/01 09:15:26;;;;;;;13.45;3.00;;;;;;;;;;5022540;28;20115;-71
2023/09/01 09:19:11;;;;;;;11.93;3.22;;;;;;;;;;5019478;28;20056;-69
2023/09/01 09:22:49;;;;;;;9.88;3.28;;;;;;;;;;5018158;28;20060;-69
2023/09/01 09:26:30;;;;;;;9.02;3.28;;;;;;;;;;5018650;28;20076;-68
2023/09/01 09:30:16;;;;;;;10.38;2.97;;;;;;;;;;5022185;28;20053;-69
2023/09/01 09:33:58;;;;;;;9.73;2.70;;;;;;;;;;5013660;28;20374;-67
2023/09/01 09:37:40;;;;;;;14.32;2.72;;;;;;;;;;5020719;28;20900;-69
2023/09/01 09:41:21;;;;;;;9.98;2.60;;;;;;;;;;5021237;28;20053;-67
2023/09/01 09:44:42;;;;;;;11.57;5.63;;;;;;;;;;5016694;28;20409;-68
2023/09/01 09:48:25;;;;;;;8.30;2.97;;;;;;;;;;5018022;28;20060;-69
2023/09/01 09:52:06;;;;;;;8.35;3.10;;;;;;;;;;5022165;28;20045;-69
2023/09/01 09:55:49;;;;;;;7.45;2.10;;;;;;;;;;5022470;28;20662;-68
2023/09/01 09:59:29;;;;;;;5.85;2.30;;;;;;;;;;5023015;28;20048;-69
2023/09/01 10:03:09;;;;;;;8.35;2.85;;;;;;;;;;5018576;28;20226;-67
2023/09/01 10:05:46;;;;;;;4.65;2.10;;;;;;;;;;5020541;28;20041;-69
2023/09/01 10:08:20;;;;;;;5.60;2.10;;;;;;;;;;5022889;28;20057;-68
2023/09/01 10:10:46;;;;;;;6.00;2.28;;;;;;;;;;5018899;28;20045;-66
2023/09/01 10:13:14;;;;;;;6.60;1.83;;;;;;;;;;5018757;28;20076;-67
2023/09/01 10:15:42;;;;;;;4.32;1.98;;;;;;;;;;5019708;28;20050;-68
2023/09/01 10:18:10;;;;;;;10.07;2.40;;;;;;;;;;5018354;28;20075;-67
2023/09/01 10:20:43;;;;;;;5.32;2.10;;;;;;;;;;5018481;28;20512;-65
2023/09/01 10:23:13;;;;;;;7.63;2.40;;;;;;;;;;5019210;28;20136;-68
2023/09/01 10:25:40;;;;;;;4.85;1.92;;;;;;;;;;5019444;28;20107;-72
2023/09/01 10:28:12;;;;;;;5.28;2.10;;;;;;;;;;5023714;28;20501;-68
2023/09/01 10:30:43;;;;;;;5.90;2.17;;;;;;;;;;5016195;28;20248;-67
2023/09/01 10:33:11;;;;;;;7.93;2.35;;;;;;;;;;5023689;28;20084;-70
2023/09/01 10:35:50;;;;;;;8.05;2.50;;;;;;;;;;5020988;28;20068;-71
2023/09/01 10:38:21;;;;;;;5.88;2.60;;;;;;;;;;5021483;28;20099;-70
2023/09/01 10:40:50;;;;;;;8.93;2.50;;;;;;;;;;5017317;28;20049;-69
2023/09/01 10:43:32;;;;;;;6.82;2.30;;;;;;;;;;5014962;28;20119;-68
2023/09/01 10:47:14;;;;;;;9.52;2.95;;;;;;;;;;5016891;28;20091;-69
2023/09/01 10:50:55;;;;;;;8.55;2.92;;;;;;;;;;5014412;28;20048;-68
2023/09/01 10:54:15;;;;;;;8.02;3.22;;;;;;;;;;5019856;28;20954;-68
2023/09/01 10:58:01;;;;;;;7.50;3.25;;;;;;;;;;5021004;28;20508;-69
2023/09/01 11:01:23;;;;;;;;;;;;;;;;;;5018823;28;20064;-70
2023/09/01 11:04:24;;;;;;;9.48;2.75;;;;;;;;;;5017148;28;20372;-69
2023/09/01 11:08:10;;;;;;;13.10;3.13;;;;;;;;;;5021292;28;20065;-67
2023/09/01 11:11:50;;;;;;;9.23;2.75;;;;;;;;;;5021738;28;20069;-68
2023/09/01 11:14:56;;;;;;;7.55;2.63;;;;;;;;;;5017964;28;20049;-67
2023/09/01 11:17:38;;;;;;;9.82;3.10;;;;;;;;;;5018589;28;20313;-68
2023/09/01 11:20:08;;;;;;;6.55;3.25;;;;;;;;;;5023677;28;20060;-68
2023/09/01 11:22:40;;;;;;;6.85;3.05;;;;;;;;;;5006059;28;20098;-67
2023/09/01 11:25:12;;;;;;;9.32;3.05;;;;;;;;;;5023481;28;20121;-69
2023/09/01 11:27:43;;;;;;;5.65;2.35;;;;;;;;;;5023609;28;20061;-67
2023/09/01 11:30:10;;;;;;;8.18;3.35;;;;;;;;;;5016820;28;20077;-68
2023/09/01 11:32:36;;;;;;;21.20;12.07;;;;;;;;;;5022914;28;20065;-66
2023/09/01 11:35:04;;;;;;;38.83;21.17;;;;;;;;;;5023667;28;20132;-69
2023/09/01 11:37:39;;;;;;;10.05;4.22;;;;;;;;;;5019174;28;20188;-68
2023/09/01 11:40:08;;;;;;;27.00;14.35;;;;;;;;;;5020865;28;20053;-67
2023/09/01 11:42:41;;;;;;;11.75;5.45;;;;;;;;;;5021311;28;20058;-72
2023/09/01 11:45:08;;;;;;;10.02;4.57;;;;;;;;;;5020163;28;20061;-68
2023/09/01 11:47:35;;;;;;;17.77;7.57;;;;;;;;;;5020446;28;20057;-67
2023/09/01 11:50:04;;;;;;;12.68;4.05;;;;;;;;;;5002956;28;20068;-68
2023/09/01 11:52:30;;;;;;;12.25;4.90;;;;;;;;;;5022501;28;20049;-68
2023/09/01 11:54:58;;;;;;;5.97;2.60;;;;;;;;;;5003724;28;20080;-69
2023/09/01 11:57:25;;;;;;;10.55;4.70;;;;;;;;;;5022569;28;20084;-73
2023/09/01 11:59:51;;;;;;;22.65;11.57;;;;;;;;;;5020540;28;20482;-69
2023/09/01 12:02:18;;;;;;;22.58;11.48;;;;;;;;;;5020957;28;20049;-69
2023/09/01 12:04:48;;;;;;;8.98;3.17;;;;;;;;;;5020426;28;20049;-67
2023/09/01 12:07:26;;;;;;;10.48;4.15;;;;;;;;;;5003139;28;20067;-69
2023/09/01 12:09:53;;;;;;;8.80;3.60;;;;;;;;;;5001879;28;20136;-68
2023/09/01 12:12:20;;;;;;;7.38;2.40;;;;;;;;;;5019661;28;20053;-67
2023/09/01 12:14:46;;;;;;;4.82;2.60;;;;;;;;;;5018700;28;20049;-67
2023/09/01 12:17:20;;;;;;;7.32;2.78;;;;;;;;;;5020901;28;20053;-69
2023/09/01 12:19:52;;;;;;;13.18;2.85;;;;;;;;;;5021512;28;20049;-68
2023/09/01 12:22:20;;;;;;;7.57;2.15;;;;;;;;;;5017555;28;20038;-67
2023/09/01 12:25:04;;;;;;;6.47;2.47;;;;;;;;;;5019011;28;20056;-67
2023/09/01 12:27:34;;;;;;;9.63;2.83;;;;;;;;;;5019880;28;20100;-67
2023/09/01 12:29:59;;;;;;;3.80;1.80;;;;;;;;;;5022070;28;20459;-68
2023/09/01 12:32:27;;;;;;;9.13;3.20;;;;;;;;;;5021941;28;20057;-67
2023/09/01 12:34:53;;;;;;;4.95;2.00;;;;;;;;;;5020794;28;20107;-69
2023/09/01 12:37:19;;;;;;;6.82;2.10;;;;;;;;;;5022602;28;20044;-67
2023/09/01 12:39:45;;;;;;;5.43;1.85;;;;;;;;;;5006749;28;20045;-69
2023/09/01 12:42:11;;;;;;;7.30;1.98;;;;;;;;;;5025947;28;20107;-68
2023/09/01 12:44:37;;;;;;;9.85;2.08;;;;;;;;;;5024685;28;20599;-66
2023/09/01 12:47:05;;;;;;;3.97;2.20;;;;;;;;;;5007779;28;20087;-68
2023/09/01 12:49:31;;;;;;;8.95;1.90;;;;;;;;;;5023898;28;20345;-69
2023/09/01 12:51:57;;;;;;;5.00;1.98;;;;;;;;;;5024147;28;20045;-66
2023/09/01 12:54:27;;;;;;;6.00;1.95;;;;;;;;;;5021992;28;20080;-70
2023/09/01 12:56:54;;;;;;;5.32;2.10;;;;;;;;;;5030591;28;20049;-69
2023/09/01 12:59:19;;;;;;;6.45;2.38;;;;;;;;;;5028575;28;20382;-68
2023/09/01 13:01:47;;;;;;;3.50;1.88;;;;;;;;;;5020118;28;20053;-66
2023/09/01 13:04:12;;;;;;;5.00;2.10;;;;;;;;;;5024238;28;20414;-68
2023/09/01 13:06:39;;;;;;;6.18;2.25;;;;;;;;;;5024300;28;20061;-67
2023/09/01 13:09:07;;;;;;;4.32;2.00;;;;;;;;;;5024053;28;20713;-67
2023/09/01 13:11:35;;;;;;;5.88;2.25;;;;;;;;;;5024722;28;20139;-69
2023/09/01 13:14:01;;;;;;;5.68;2.00;;;;;;;;;;5028571;28;20053;-69
2023/09/01 13:16:30;;;;;;;6.18;2.30;;;;;;;;;;5006450;28;20060;-69
2023/09/01 13:18:56;;;;;;;6.85;2.13;;;;;;;;;;5007682;28;20362;-68
2023/09/01 13:21:25;;;;;;;13.40;2.75;;;;;;;;;;5020795;28;20502;-67
2023/09/01 13:23:52;;;;;;;8.10;2.00;;;;;;;;;;5005210;28;20041;-66
2023/09/01 13:26:18;;;;;;;4.68;2.05;;;;;;;;;;5024811;28;20038;-66
2023/09/01 13:28:44;;;;;;;7.70;2.10;;;;;;;;;;5019551;28;20580;-69
2023/09/01 13:31:11;;;;;;;6.70;1.80;;;;;;;;;;5021514;28;20057;-68
2023/09/01 13:33:40;;;;;;;7.70;2.08;;;;;;;;;;5023871;28;20075;-66
2023/09/01 13:36:07;;;;;;;6.60;2.08;;;;;;;;;;5004424;28;20061;-68
2023/09/01 13:38:33;;;;;;;8.35;2.40;;;;;;;;;;5026907;28;20112;-67
2023/09/01 13:41:00;;;;;;;7.80;1.88;;;;;;;;;;5026252;28;20061;-69
2023/09/01 13:43:26;;;;;;;8.55;1.90;;;;;;;;;;5025086;28;20163;-69
2023/09/01 13:45:54;;;;;;;10.15;2.35;;;;;;;;;;5022043;28;20053;-67
2023/09/01 13:48:22;;;;;;;9.23;2.13;;;;;;;;;;5019656;28;20053;-67
2023/09/01 13:50:48;;;;;;;5.85;2.35;;;;;;;;;;5018480;28;20060;-68
2023/09/01 13:53:16;;;;;;;10.23;2.00;;;;;;;;;;5003936;28;20045;-69
2023/09/01 13:55:42;;;;;;;7.00;1.85;;;;;;;;;;5023168;28;20061;-68
2023/09/01 13:58:09;;;;;;;4.78;1.75;;;;;;;;;;5024336;28;20459;-69
2023/09/01 14:00:35;;;;;;;5.72;2.03;;;;;;;;;;5025433;28;20441;-69
2023/09/01 14:03:01;;;;;;;9.88;2.30;;;;;;;;;;5025828;28;20045;-70
2023/09/01 14:05:33;;;;;;;7.32;2.20;;;;;;;;;;5008232;28;20061;-69
2023/09/01 14:07:59;;;;;;;10.35;2.30;;;;;;;;;;5023943;28;20061;-68
2023/09/01 14:10:25;;;;;;;12.43;2.40;;;;;;;;;;5020002;28;20068;-68
2023/09/01 14:12:51;;;;;;;8.90;2.03;;;;;;;;;;5024350;28;20053;-66
2023/09/01 14:15:17;;;;;;;8.13;2.00;;;;;;;;;;5024869;28;20057;-66
2023/09/01 14:17:45;;;;;;;10.45;2.80;;;;;;;;;;5004490;28;20060;-66
2023/09/01 14:20:12;;;;;;;7.90;2.33;;;;;;;;;;5018076;28;20048;-68
2023/09/01 14:22:39;;;;;;;7.95;1.98;;;;;;;;;;5019907;28;20045;-68
2023/09/01 14:25:06;;;;;;;6.05;2.17;;;;;;;;;;5022545;28;20075;-68
2023/09/01 14:27:32;;;;;;;11.07;2.45;;;;;;;;;;5003439;28;20463;-69
2023/09/01 14:30:02;;;;;;;10.38;2.33;;;;;;;;;;5020950;28;20076;-68
2023/09/01 14:32:28;;;;;;;20.38;4.20;;;;;;;;;;5022142;28;20057;-67
2023/09/01 14:34:54;;;;;;;12.00;2.80;;;;;;;;;;4999248;28;20053;-69
2023/09/01 14:37:22;;;;;;;10.35;2.03;;;;;;;;;;5009128;28;20045;-68
2023/09/01 14:39:52;;;;;;;7.75;2.15;;;;;;;;;;5022340;28;20087;-67
2023/09/01 14:42:18;;;;;;;7.95;2.25;;;;;;;;;;5023973;28;20073;-67
2023/09/01 14:44:48;;;;;;;8.15;2.20;;;;;;;;;;5004841;28;20053;-66
2023/09/01 14:47:14;;;;;;;7.22;2.55;;;;;;;;;;5021771;28;20492;-68
2023/09/01 14:49:40;;;;;;;10.07;2.40;;;;;;;;;;5020914;28;20080;-66
2023/09/01 14:52:07;;;;;;;14.10;3.00;;;;;;;;;;5021575;28;20081;-66
2023/09/01 14:54:34;;;;;;;8.80;2.13;;;;;;;;;;5020196;28;20069;-65
2023/09/01 14:57:01;;;;;;;8.35;2.33;;;;;;;;;;5023268;28;20064;-65
2023/09/01 14:59:27;;;;;;;7.75;2.15;;;;;;;;;;5021523;28;20501;-63
2023/09/01 15:01:55;;;;;;;7.63;2.25;;;;;;;;;;5022770;28;20099;-66
2023/09/01 15:04:25;;;;;;;11.43;2.22;;;;;;;;;;5024717;28;20136;-64
2023/09/01 15:06:52;;;;;;;11.63;2.10;;;;;;;;;;5021295;28;20588;-64
2023/09/01 15:09:20;;;;;;;7.90;2.10;;;;;;;;;;5023433;28;20386;-65
2023/09/01 15:11:47;;;;;;;10.70;2.30;;;;;;;;;;5020589;28;21018;-66
2023/09/01 15:14:13;;;;;;;12.25;2.38;;;;;;;;;;5020441;28;20114;-61
2023/09/01 15:16:39;;;;;;;9.32;2.28;;;;;;;;;;5024528;28;20065;-65
2023/09/01 15:19:07;;;;;;;9.48;2.30;;;;;;;;;;5019376;28;20045;-64
2023/09/01 15:21:33;;;;;;;12.02;2.50;;;;;;;;;;5025832;28;20107;-65
2023/09/01 15:23:59;;;;;;;13.70;2.50;;;;;;;;;;5020370;28;20894;-65
2023/09/01 15:26:25;;;;;;;9.50;2.40;;;;;;;;;;5004045;28;20045;-67
2023/09/01 15:28:51;;;;;;;8.43;2.20;;;;;;;;;;5023969;28;20474;-66
2023/09/01 15:31:18;;;;;;;11.32;2.35;;;;;;;;;;5025359;28;20140;-64
2023/09/01 15:33:44;;;;;;;7.45;2.17;;;;;;;;;;5020787;28;20057;-63
2023/09/01 15:36:10;;;;;;;8.50;2.03;;;;;;;;;;5022683;28;20592;-62
2023/09/01 15:38:36;;;;;;;9.15;2.60;;;;;;;;;;5018775;28;20084;-66
2023/09/01 15:41:02;;;;;;;12.60;2.65;;;;;;;;;;5018521;28;20441;-62
2023/09/01 15:43:31;;;;;;;14.30;2.55;;;;;;;;;;5000261;28;20095;-63
2023/09/01 15:45:58;;;;;;;11.45;2.50;;;;;;;;;;5019360;28;20521;-66
2023/09/01 15:48:28;;;;;;;7.57;2.13;;;;;;;;;;4999866;28;20057;-64
2023/09/01 15:50:57;;;;;;;10.43;2.42;;;;;;;;;;5016159;28;20037;-64
2023/09/01 15:53:24;;;;;;;9.30;2.22;;;;;;;;;;5020798;28;20049;-63
2023/09/01 15:55:54;;;;;;;6.68;2.40;;;;;;;;;;5001556;28;20140;-63
2023/09/01 15:58:20;;;;;;;8.85;2.30;;;;;;;;;;5021602;28;20134;-63
2023/09/01 16:00:53;;;;;;;8.07;2.60;;;;;;;;;;5016947;28;20049;-63
2023/09/01 16:03:19;;;;;;;10.63;2.20;;;;;;;;;;5015698;28;20057;-68
2023/09/01 16:05:46;;;;;;;8.98;1.92;;;;;;;;;;5019550;28;20189;-66
2023/09/01 16:08:12;;;;;;;8.48;2.25;;;;;;;;;;5017184;28;20552;-66
2023/09/01 16:10:40;;;;;;;9.07;2.25;;;;;;;;;;5019572;28;20068;-62
2023/09/01 16:13:06;;;;;;;11.82;2.47;;;;;;;;;;5022542;28;20057;-63
2023/09/01 16:15:33;;;;;;;6.38;2.30;;;;;;;;;;5019375;28;20591;-61
2023/09/01 16:18:00;;;;;;;9.80;2.30;;;;;;;;;;5017862;28;20132;-63
2023/09/01 16:20:27;;;;;;;11.05;1.92;;;;;;;;;;5012337;28;20103;-61
2023/09/01 16:22:53;;;;;;;7.75;2.42;;;;;;;;;;5015551;28;20115;-63
2023/09/01 16:25:19;;;;;;;11.20;2.70;;;;;;;;;;5016900;28;20455;-63
2023/09/01 16:27:46;;;;;;;10.25;2.70;;;;;;;;;;5018906;28;20054;-63
2023/09/01 16:30:12;;;;;;;9.07;2.38;;;;;;;;;;5002659;28;20060;-61
2023/09/01 16:32:39;;;;;;;9.05;2.40;;;;;;;;;;5019574;28;20080;-63
2023/09/01 16:35:16;;;;;;;7.18;2.30;;;;;;;;;;5020682;28;20547;-64
2023/09/01 16:37:43;;;;;;;6.88;2.55;;;;;;;;;;5021669;28;20161;-63
2023/09/01 16:40:09;;;;;;;7.97;2.63;;;;;;;;;;5017949;28;20053;-65
2023/09/01 16:42:39;;;;;;;7.85;2.28;;;;;;;;;;5020603;28;20045;-65
2023/09/01 16:45:06;;;;;;;7.82;2.42;;;;;;;;;;5017528;28;20066;-65
2023/09/01 16:47:32;;;;;;;7.00;2.17;;;;;;;;;;5018118;28;20054;-65
2023/09/01 16:49:58;;;;;;;11.60;2.70;;;;;;;;;;5015978;28;20056;-62
2023/09/01 16:52:27;;;;;;;8.55;2.90;;;;;;;;;;5018130;28;20133;-63
2023/09/01 16:54:53;;;;;;;7.03;2.50;;;;;;;;;;5016805;28;20356;-65
2023/09/01 16:57:22;;;;;;;10.82;2.42;;;;;;;;;;5020531;28;20176;-64
2023/09/01 16:59:48;;;;;;;13.90;2.58;;;;;;;;;;5019693;28;20103;-66
2023/09/01 17:02:15;;;;;;;13.05;2.47;;;;;;;;;;5021580;28;20562;-62
2023/09/01 17:04:41;;;;;;;13.05;2.95;;;;;;;;;;5018606;28;20060;-64
2023/09/01 17:07:09;;;;;;;8.60;2.53;;;;;;;;;;5021391;28;20057;-62
2023/09/01 17:09:36;;;;;;;10.63;3.08;;;;;;;;;;5018128;28;20049;-65
2023/09/01 17:12:03;;;;;;;13.25;2.35;;;;;;;;;;5019513;28;20049;-68
2023/09/01 17:14:32;;;;;;;11.02;2.92;;;;;;;;;;5020069;28;20634;-65
2023/09/01 17:16:58;;;;;;;7.90;2.20;;;;;;;;;;5019054;28;20065;-64
2023/09/01 17:19:25;;;;;;;8.95;2.45;;;;;;;;;;5017560;28;20094;-61
2023/09/01 17:21:50;;;;;;;11.60;2.50;;;;;;;;;;5011336;28;20053;-63
2023/09/01 17:24:17;;;;;;;15.43;3.00;;;;;;;;;;5011615;28;20441;-65
2023/09/01 17:26:43;;;;;;;9.95;2.75;;;;;;;;;;5014126;28;20049;-63
2023/09/01 17:29:09;;;;;;;21.55;2.63;;;;;;;;;;5016001;28;20050;-62
2023/09/01 17:31:35;;;;;;;9.98;2.80;;;;;;;;;;5021672;28;20057;-61
2023/09/01 17:34:02;;;;;;;11.55;2.97;;;;;;;;;;5027497;28;20042;-63
2023/09/01 17:36:28;;;;;;;10.80;2.30;;;;;;;;;;5026170;28;20057;-62
2023/09/01 17:38:54;;;;;;;8.23;2.47;;;;;;;;;;5021799;28;20049;-64
2023/09/01 17:41:38;;;;;;;9.88;2.28;;;;;;;;;;5004939;28;20621;-64
2023/09/01 17:44:05;;;;;;;10.45;2.47;;;;;;;;;;5024645;28;20471;-62
2023/09/01 17:46:31;;;;;;;11.73;2.53;;;;;;;;;;5026137;28;20049;-63
2023/09/01 17:48:58;;;;;;;6.28;2.30;;;;;;;;;;5021690;28;20049;-64
2023/09/01 17:51:25;;;;;;;10.45;2.50;;;;;;;;;;5019424;28;20707;-64
2023/09/01 17:53:52;;;;;;;9.70;2.60;;;;;;;;;;5024827;28;20045;-64
2023/09/01 17:56:19;;;;;;;12.18;2.75;;;;;;;;;;5024826;28;20052;-65
2023/09/01 17:58:45;;;;;;;9.68;2.35;;;;;;;;;;5018335;28;20509;-64